Time;durP1;ratioP1;P1;durP2;ratioP2;P2;SDS_P1;SDS_P2;PMS_P1;PMS_P2;Temp;Humidity;BMP_temperature;BMP_pressure;BME280_temperature;BME280_humidity;BME280_pressure;Samples;Min_cycle;Max_cycle;Signal;HPM_P1;HPM_P2
2020/12/22 00:01:33;;;;;;;1.55;1.30;;;9.20;99.90;;;;;;1925512;74;21072;-77
2020/12/22 00:03:59;;;;;;;2.35;1.30;;;9.20;99.90;;;;;;1920709;73;21079;-78
2020/12/22 00:06:25;;;;;;;2.10;1.37;;;9.20;99.90;;;;;;1918986;73;21083;-77
2020/12/22 00:08:51;;;;;;;1.35;1.20;;;9.20;99.90;;;;;;1921279;73;21475;-77
2020/12/22 00:11:17;;;;;;;2.00;1.50;;;9.20;99.90;;;;;;1920795;74;21547;-76
2020/12/22 00:13:43;;;;;;;1.42;1.12;;;9.20;99.90;;;;;;1923768;73;21502;-77
2020/12/22 00:16:09;;;;;;;2.20;1.40;;;9.20;99.90;;;;;;1921638;74;21064;-77
2020/12/22 00:18:35;;;;;;;1.72;1.35;;;9.10;99.90;;;;;;1919626;74;21081;-77
2020/12/22 00:21:02;;;;;;;2.25;1.40;;;9.10;99.90;;;;;;1921172;73;21076;-77
2020/12/22 00:23:28;;;;;;;2.42;1.30;;;9.10;99.90;;;;;;1918336;74;21060;-77
2020/12/22 00:25:54;;;;;;;2.52;1.52;;;9.10;99.90;;;;;;1921444;74;21129;-76
2020/12/22 00:28:20;;;;;;;1.30;1.20;;;9.10;99.90;;;;;;1917363;73;21170;-77
2020/12/22 00:30:49;;;;;;;1.10;0.80;;;9.10;99.90;;;;;;1921223;74;21071;-77
2020/12/22 00:33:14;;;;;;;0.80;0.80;;;9.20;99.90;;;;;;1918053;74;21257;-77
2020/12/22 00:35:40;;;;;;;4.17;0.90;;;9.30;99.90;;;;;;1918695;73;21075;-77
2020/12/22 00:38:06;;;;;;;1.25;1.02;;;9.30;99.90;;;;;;1922192;74;21079;-77
2020/12/22 00:40:32;;;;;;;0.85;0.80;;;9.40;99.90;;;;;;1922908;74;21036;-76
2020/12/22 00:43:02;;;;;;;1.45;1.00;;;9.40;99.90;;;;;;1923430;73;21063;-77
2020/12/22 00:45:29;;;;;;;1.00;0.90;;;9.50;99.90;;;;;;1919838;74;21089;-76
2020/12/22 00:47:55;;;;;;;2.40;0.70;;;9.60;99.90;;;;;;1923871;74;21048;-76
2020/12/22 00:50:21;;;;;;;3.25;0.82;;;9.50;99.90;;;;;;1918598;73;21081;-76
2020/12/22 00:52:47;;;;;;;0.93;0.60;;;9.50;99.90;;;;;;1919886;73;21145;-76
2020/12/22 00:55:13;;;;;;;0.62;0.57;;;9.60;99.90;;;;;;1916535;74;21084;-76
2020/12/22 00:57:39;;;;;;;4.47;0.53;;;9.70;99.90;;;;;;1921927;73;21080;-76
2020/12/22 01:00:05;;;;;;;0.95;0.57;;;9.80;99.90;;;;;;1922987;73;21079;-76
2020/12/22 01:02:31;;;;;;;0.45;0.45;;;10.00;99.90;;;;;;1922262;73;21153;-77
2020/12/22 01:04:58;;;;;;;2.20;0.50;;;10.10;99.90;;;;;;1918671;74;21088;-76
2020/12/22 01:07:24;;;;;;;0.80;0.60;;;10.10;99.90;;;;;;1924493;74;21083;-76
2020/12/22 01:09:50;;;;;;;0.42;0.42;;;10.10;99.90;;;;;;1920401;73;21048;-75
2020/12/22 01:12:16;;;;;;;0.42;0.42;;;10.10;99.90;;;;;;1918971;74;21496;-77
2020/12/22 01:14:44;;;;;;;0.80;0.60;;;10.00;99.90;;;;;;1918853;73;21519;-76
2020/12/22 01:17:10;;;;;;;0.45;0.45;;;10.10;99.90;;;;;;1923014;74;21060;-76
2020/12/22 01:19:36;;;;;;;0.42;0.42;;;10.10;99.90;;;;;;1920636;74;21182;-76
2020/12/22 01:22:02;;;;;;;0.93;0.55;;;10.00;99.90;;;;;;1924130;73;21127;-76
2020/12/22 01:24:28;;;;;;;0.85;0.55;;;10.00;99.90;;;;;;1921113;73;21161;-76
2020/12/22 01:26:55;;;;;;;1.17;0.30;;;10.10;99.90;;;;;;1920012;73;21084;-76
2020/12/22 01:29:21;;;;;;;0.40;0.40;;;10.00;99.90;;;;;;1920789;74;21072;-77
2020/12/22 01:31:47;;;;;;;0.30;0.30;;;10.10;99.90;;;;;;1919465;73;21067;-76
2020/12/22 01:34:14;;;;;;;0.30;0.30;;;10.10;99.90;;;;;;1921760;74;21071;-76
2020/12/22 01:36:40;;;;;;;0.78;0.47;;;10.20;99.90;;;;;;1919080;74;21267;-76
2020/12/22 01:39:06;;;;;;;0.40;0.40;;;10.20;99.90;;;;;;1923883;74;21048;-76
2020/12/22 01:41:32;;;;;;;0.53;0.30;;;10.30;99.90;;;;;;1922865;73;21153;-76
2020/12/22 01:43:58;;;;;;;0.55;0.40;;;10.40;99.90;;;;;;1922003;74;21084;-76
2020/12/22 01:46:24;;;;;;;1.15;0.40;;;10.40;99.90;;;;;;1920799;74;21134;-76
2020/12/22 01:48:50;;;;;;;0.33;0.33;;;10.30;99.90;;;;;;1921569;74;21049;-76
2020/12/22 01:51:16;;;;;;;0.30;0.30;;;10.20;99.90;;;;;;1922388;74;21124;-76
2020/12/22 01:53:43;;;;;;;3.20;0.40;;;10.20;99.90;;;;;;1923085;73;21087;-76
2020/12/22 01:56:09;;;;;;;0.25;0.25;;;10.10;99.90;;;;;;1922914;74;21161;-76
2020/12/22 01:58:35;;;;;;;0.20;0.20;;;10.20;99.90;;;;;;1921090;73;21048;-77
2020/12/22 02:01:01;;;;;;;0.37;0.37;;;10.20;99.90;;;;;;1919647;73;21088;-76
2020/12/22 02:03:27;;;;;;;0.20;0.20;;;10.20;99.90;;;;;;1923390;73;21478;-77
2020/12/22 02:05:53;;;;;;;0.20;0.20;;;10.10;99.90;;;;;;1918800;73;21618;-77
2020/12/22 02:08:19;;;;;;;0.40;0.40;;;10.10;99.90;;;;;;1921777;73;21428;-77
2020/12/22 02:10:45;;;;;;;0.37;0.33;;;10.10;99.90;;;;;;1920798;74;21580;-77
2020/12/22 02:13:11;;;;;;;2.20;0.50;;;10.10;99.90;;;;;;1919850;73;21556;-77
2020/12/22 02:15:38;;;;;;;0.30;0.30;;;10.10;99.90;;;;;;1919548;74;21142;-77
2020/12/22 02:18:04;;;;;;;0.47;0.47;;;9.90;99.90;;;;;;1918325;74;21158;-77
2020/12/22 02:20:30;;;;;;;1.02;0.50;;;9.90;99.90;;;;;;1921382;73;21071;-77
2020/12/22 02:22:56;;;;;;;0.50;0.50;;;10.00;99.90;;;;;;1921934;74;21084;-77
2020/12/22 02:25:22;;;;;;;0.50;0.50;;;10.00;99.90;;;;;;1920025;73;21170;-77
2020/12/22 02:27:48;;;;;;;1.77;0.42;;;10.00;99.90;;;;;;1920601;73;21087;-77
2020/12/22 02:30:15;;;;;;;0.47;0.47;;;10.10;99.90;;;;;;1921167;74;21052;-76
2020/12/22 02:32:41;;;;;;;0.42;0.42;;;10.10;99.90;;;;;;1918253;73;21087;-77
2020/12/22 02:35:07;;;;;;;1.37;0.33;;;10.10;99.90;;;;;;1922236;74;21140;-77
2020/12/22 02:37:33;;;;;;;0.20;0.20;;;10.10;99.90;;;;;;1922195;74;21503;-77
2020/12/22 02:39:59;;;;;;;0.20;0.20;;;10.10;99.90;;;;;;1921492;73;21440;-77
2020/12/22 02:42:25;;;;;;;1.02;0.42;;;10.10;99.90;;;;;;1921234;73;21499;-77
2020/12/22 02:44:51;;;;;;;0.20;0.20;;;10.00;99.90;;;;;;1920810;73;21499;-77
2020/12/22 02:47:17;;;;;;;0.20;0.20;;;10.10;99.90;;;;;;1920941;74;21556;-77
2020/12/22 02:49:44;;;;;;;0.33;0.20;;;10.20;99.90;;;;;;1920990;73;21044;-77
2020/12/22 02:52:10;;;;;;;0.60;0.60;;;10.30;99.90;;;;;;1919011;73;21150;-77
2020/12/22 02:54:36;;;;;;;0.30;0.30;;;10.30;99.90;;;;;;1918178;73;21512;-77
2020/12/22 02:57:02;;;;;;;0.30;0.25;;;10.30;99.90;;;;;;1918626;74;21487;-77
2020/12/22 02:59:29;;;;;;;0.20;0.20;;;10.50;99.90;;;;;;1917983;74;21498;-77
2020/12/22 03:01:56;;;;;;;0.17;0.17;;;10.60;99.90;;;;;;1919499;74;21514;-77
2020/12/22 03:04:22;;;;;;;0.20;0.20;;;10.70;99.90;;;;;;1917968;73;21056;-77
2020/12/22 03:06:48;;;;;;;0.10;0.10;;;10.80;99.90;;;;;;1921229;73;21084;-77
2020/12/22 03:09:14;;;;;;;0.80;0.20;;;11.00;99.90;;;;;;1922422;74;21059;-77
2020/12/22 03:11:40;;;;;;;0.10;0.10;;;11.10;99.90;;;;;;1921198;73;21201;-77
2020/12/22 03:14:06;;;;;;;0.13;0.13;;;11.30;99.90;;;;;;1924422;74;21039;-77
2020/12/22 03:16:33;;;;;;;0.00;0.00;;;11.40;99.90;;;;;;1921286;74;21075;-77
2020/12/22 03:18:59;;;;;;;0.10;0.10;;;11.60;99.90;;;;;;1921859;74;21161;-77
2020/12/22 03:21:25;;;;;;;1.27;0.82;;;11.80;99.90;;;;;;1915679;74;21488;-77
2020/12/22 03:23:51;;;;;;;0.20;0.20;;;11.70;99.90;;;;;;1921840;73;21441;-77
2020/12/22 03:26:17;;;;;;;0.30;0.30;;;11.70;99.90;;;;;;1921467;74;21472;-77
2020/12/22 03:28:43;;;;;;;0.13;0.13;;;11.70;99.90;;;;;;1922510;74;21471;-77
2020/12/22 03:31:09;;;;;;;0.37;0.20;;;11.90;99.90;;;;;;1916438;74;21472;-77
2020/12/22 03:33:35;;;;;;;0.20;0.17;;;12.00;99.90;;;;;;1917612;74;21042;-77
2020/12/22 03:36:01;;;;;;;0.10;0.10;;;12.00;99.90;;;;;;1923408;74;21133;-77
2020/12/22 03:38:28;;;;;;;0.10;0.10;;;12.10;99.90;;;;;;1923935;73;21076;-77
2020/12/22 03:40:54;;;;;;;0.10;0.10;;;12.10;99.90;;;;;;1917459;74;21150;-77
2020/12/22 03:43:20;;;;;;;0.55;0.15;;;12.10;99.90;;;;;;1921715;74;21073;-77
2020/12/22 03:45:46;;;;;;;0.10;0.10;;;12.00;99.90;;;;;;1920724;74;21083;-76
2020/12/22 03:48:12;;;;;;;0.17;0.03;;;12.00;99.90;;;;;;1920833;74;21075;-77
2020/12/22 03:50:38;;;;;;;1.77;0.45;;;11.90;99.90;;;;;;1921565;74;21080;-77
2020/12/22 03:53:04;;;;;;;0.20;0.10;;;11.90;99.90;;;;;;1920812;74;21213;-77
2020/12/22 03:55:31;;;;;;;0.10;0.10;;;11.90;99.90;;;;;;1923687;74;21148;-77
2020/12/22 03:57:57;;;;;;;0.30;0.10;;;11.90;99.90;;;;;;1920088;74;21157;-77
2020/12/22 04:00:23;;;;;;;3.52;0.53;;;11.80;99.90;;;;;;1924487;74;21170;-76
2020/12/22 04:02:49;;;;;;;0.10;0.10;;;11.80;99.90;;;;;;1923380;74;21637;-77
2020/12/22 04:05:15;;;;;;;0.25;0.10;;;12.00;99.90;;;;;;1920618;73;21499;-77
2020/12/22 04:07:41;;;;;;;0.17;0.10;;;12.00;99.90;;;;;;1918995;74;21584;-77
2020/12/22 04:10:07;;;;;;;0.15;0.10;;;12.10;99.90;;;;;;1923418;74;21063;-77
2020/12/22 04:12:33;;;;;;;0.00;0.00;;;12.10;99.90;;;;;;1921107;74;21072;-77
2020/12/22 04:15:00;;;;;;;0.60;0.10;;;12.10;99.90;;;;;;1925647;73;21043;-78
2020/12/22 04:17:26;;;;;;;1.20;0.17;;;12.10;99.90;;;;;;1920747;73;21079;-77
2020/12/22 04:19:52;;;;;;;0.08;0.08;;;12.10;99.90;;;;;;1918757;74;21079;-77
2020/12/22 04:22:18;;;;;;;1.25;0.30;;;12.10;99.90;;;;;;1917298;74;21153;-77
2020/12/22 04:24:44;;;;;;;0.10;0.10;;;12.10;99.90;;;;;;1919434;74;21048;-77
2020/12/22 04:27:10;;;;;;;0.20;0.10;;;12.10;99.90;;;;;;1918790;73;21157;-77
2020/12/22 04:29:36;;;;;;;0.10;0.10;;;12.00;99.90;;;;;;1924317;73;21157;-77
2020/12/22 04:32:02;;;;;;;0.03;0.03;;;12.00;99.90;;;;;;1918230;73;21088;-77
2020/12/22 04:34:29;;;;;;;1.85;0.28;;;12.10;99.90;;;;;;1920316;73;21044;-76
2020/12/22 04:36:55;;;;;;;0.10;0.10;;;12.30;99.90;;;;;;1922447;74;21136;-77
2020/12/22 04:39:21;;;;;;;0.00;0.00;;;12.30;99.90;;;;;;1921037;73;21144;-77
2020/12/22 04:41:47;;;;;;;0.00;0.00;;;12.20;99.90;;;;;;1922314;73;21580;-77
2020/12/22 04:44:13;;;;;;;0.10;0.10;;;12.10;99.90;;;;;;1922480;73;21206;-77
2020/12/22 04:46:40;;;;;;;0.47;0.10;;;12.10;99.90;;;;;;1918389;73;21088;-77
2020/12/22 04:49:06;;;;;;;4.58;0.72;;;12.30;99.90;;;;;;1923434;74;21137;-77
2020/12/22 04:51:32;;;;;;;1.95;0.20;;;12.20;99.90;;;;;;1924799;74;21076;-77
2020/12/22 04:56:43;;;;;;;0.10;0.10;;;12.30;99.90;;;;;;1874318;75;21193;-76
2020/12/22 04:59:10;;;;;;;0.10;0.10;;;12.20;99.90;;;;;;1882669;75;21064;-77
2020/12/22 05:01:36;;;;;;;0.10;0.10;;;12.10;99.90;;;;;;1875469;75;21146;-77
2020/12/22 05:04:02;;;;;;;0.00;0.00;;;12.10;99.90;;;;;;1867806;76;21084;-77
2020/12/22 05:06:28;;;;;;;0.10;0.10;;;12.00;99.90;;;;;;1875138;75;21079;-77
2020/12/22 05:08:54;;;;;;;0.10;0.10;;;12.20;99.90;;;;;;1867660;75;21154;-77
2020/12/22 05:11:20;;;;;;;0.20;0.20;;;12.20;99.90;;;;;;1878113;76;21087;-76
2020/12/22 05:13:46;;;;;;;0.05;0.05;;;12.30;99.90;;;;;;1884735;75;21517;-77
2020/12/22 05:16:12;;;;;;;0.10;0.10;;;12.30;99.90;;;;;;1879427;75;21516;-77
2020/12/22 05:18:39;;;;;;;0.10;0.10;;;12.30;99.90;;;;;;1877808;75;21547;-76
2020/12/22 05:21:05;;;;;;;0.10;0.10;;;12.40;99.90;;;;;;1872973;75;21490;-77
2020/12/22 05:23:31;;;;;;;0.05;0.05;;;12.40;99.90;;;;;;1861482;76;21458;-77
2020/12/22 05:25:57;;;;;;;7.47;0.33;;;12.40;99.90;;;;;;1854225;76;21054;-76
2020/12/22 05:28:23;;;;;;;0.28;0.17;;;12.40;99.90;;;;;;1855159;75;21076;-77
2020/12/22 05:30:49;;;;;;;0.10;0.10;;;12.30;99.90;;;;;;1861052;76;21089;-77
2020/12/22 05:33:15;;;;;;;1.55;0.13;;;12.50;99.90;;;;;;1864087;76;21140;-77
2020/12/22 05:35:42;;;;;;;0.42;0.17;;;12.50;99.90;;;;;;1859447;76;21156;-77
2020/12/22 05:38:08;;;;;;;0.20;0.10;;;12.40;99.90;;;;;;1876436;75;21478;-77
2020/12/22 05:40:34;;;;;;;0.10;0.10;;;12.50;99.90;;;;;;1858836;74;21485;-77
2020/12/22 05:43:00;;;;;;;0.10;0.10;;;12.50;99.90;;;;;;1855768;76;21568;-76
2020/12/22 05:45:26;;;;;;;0.10;0.10;;;12.50;99.90;;;;;;1859186;76;21082;-76
2020/12/22 05:47:54;;;;;;;1.75;0.13;;;12.40;99.90;;;;;;1869998;74;21046;-77
2020/12/22 05:50:20;;;;;;;0.13;0.10;;;12.40;99.90;;;;;;1867282;76;21208;-77
2020/12/22 05:52:46;;;;;;;0.10;0.10;;;12.40;99.90;;;;;;1866059;75;21128;-77
2020/12/22 05:55:12;;;;;;;0.10;0.10;;;12.30;99.90;;;;;;1872480;75;21077;-77
2020/12/22 05:57:38;;;;;;;0.10;0.10;;;12.30;99.90;;;;;;1867794;76;21081;-77
2020/12/22 06:00:05;;;;;;;0.10;0.10;;;12.40;99.90;;;;;;1871254;75;21055;-77
2020/12/22 06:02:31;;;;;;;0.10;0.10;;;12.40;99.90;;;;;;1861564;75;21078;-77
2020/12/22 06:04:57;;;;;;;0.10;0.10;;;12.30;99.90;;;;;;1861497;75;21139;-77
2020/12/22 06:07:23;;;;;;;0.10;0.10;;;12.50;99.90;;;;;;1867256;75;21139;-77
2020/12/22 06:09:49;;;;;;;0.10;0.10;;;12.50;99.90;;;;;;1873931;74;21054;-77
2020/12/22 06:12:15;;;;;;;0.78;0.25;;;12.60;99.90;;;;;;1863537;76;21050;-77
2020/12/22 06:14:42;;;;;;;1.37;0.17;;;12.60;99.90;;;;;;1855432;75;21493;-76
2020/12/22 06:17:08;;;;;;;0.10;0.10;;;12.70;99.90;;;;;;1852513;75;21595;-75
2020/12/22 06:19:34;;;;;;;0.42;0.20;;;12.70;99.90;;;;;;1865752;75;21608;-78
2020/12/22 06:22:00;;;;;;;0.15;0.15;;;12.60;99.90;;;;;;1853308;76;21449;-78
2020/12/22 06:24:26;;;;;;;3.20;0.30;;;12.80;99.90;;;;;;1869188;76;21559;-78
2020/12/22 06:26:52;;;;;;;0.47;0.35;;;13.00;99.90;;;;;;1858066;76;21077;-78
2020/12/22 06:29:18;;;;;;;0.30;0.08;;;13.10;99.90;;;;;;1861496;74;21136;-83
2020/12/22 06:31:45;;;;;;;0.75;0.20;;;13.10;99.90;;;;;;1867157;75;21138;-85
2020/12/22 06:34:11;;;;;;;0.10;0.10;;;13.00;99.90;;;;;;1857391;76;21200;-81
2020/12/22 06:36:37;;;;;;;0.55;0.20;;;13.00;99.90;;;;;;1872261;76;21125;-78
2020/12/22 06:39:03;;;;;;;0.10;0.10;;;13.00;99.90;;;;;;1863256;75;21081;-83
2020/12/22 06:41:29;;;;;;;0.98;0.42;;;13.00;99.90;;;;;;1856860;76;21055;-81
2020/12/22 06:43:55;;;;;;;0.00;0.00;;;12.90;99.90;;;;;;1859896;76;21077;-83
2020/12/22 06:46:21;;;;;;;0.10;0.10;;;13.00;99.90;;;;;;1871807;75;21151;-82
2020/12/22 06:48:49;;;;;;;1.98;0.10;;;13.00;99.90;;;;;;1864183;75;21206;-81
2020/12/22 06:51:18;;;;;;;0.17;0.13;;;13.00;99.90;;;;;;1870582;75;22699;-81
2020/12/22 06:53:45;;;;;;;0.53;0.20;;;13.10;99.90;;;;;;1881503;75;21046;-81
2020/12/22 06:56:11;;;;;;;3.45;0.25;;;13.10;99.90;;;;;;1867357;76;21081;-83
2020/12/22 06:58:37;;;;;;;0.08;0.08;;;13.10;99.90;;;;;;1871408;76;21143;-81
2020/12/22 07:01:03;;;;;;;1.95;0.10;;;13.10;99.90;;;;;;1853180;76;21482;-82
2020/12/22 07:03:29;;;;;;;0.17;0.10;;;13.20;99.90;;;;;;1856133;76;21516;-81
2020/12/22 07:05:55;;;;;;;0.47;0.20;;;13.20;99.90;;;;;;1870689;75;21581;-84
2020/12/22 07:08:21;;;;;;;0.30;0.20;;;13.30;99.90;;;;;;1874071;75;21485;-86
2020/12/22 07:10:48;;;;;;;1.20;0.10;;;13.30;99.90;;;;;;1864907;76;21086;-80
2020/12/22 07:13:14;;;;;;;0.10;0.10;;;13.30;99.90;;;;;;1871371;74;21135;-80
2020/12/22 07:15:40;;;;;;;0.03;0.03;;;13.30;99.90;;;;;;1866661;75;21144;-88
2020/12/22 07:18:06;;;;;;;0.10;0.10;;;13.20;99.90;;;;;;1851460;76;21127;-85
2020/12/22 07:20:32;;;;;;;0.20;0.10;;;13.30;99.90;;;;;;1865853;76;21085;-87
2020/12/22 07:22:58;;;;;;;0.78;0.17;;;13.20;99.90;;;;;;1855371;76;21051;-81
2020/12/22 07:25:24;;;;;;;0.10;0.10;;;13.30;99.90;;;;;;1864431;76;21081;-80
2020/12/22 07:27:50;;;;;;;0.20;0.20;;;13.30;99.90;;;;;;1849275;76;21131;-83
2020/12/22 07:30:18;;;;;;;0.15;0.13;;;13.40;99.90;;;;;;1864859;76;21165;-80
2020/12/22 07:32:44;;;;;;;0.00;0.00;;;13.50;99.90;;;;;;1851673;76;21085;-79
2020/12/22 07:35:10;;;;;;;0.10;0.10;;;13.50;99.90;;;;;;1868075;76;21132;-87
2020/12/22 07:37:36;;;;;;;0.20;0.10;;;13.50;99.90;;;;;;1861853;75;21081;-84
2020/12/22 07:40:02;;;;;;;0.00;0.00;;;13.50;99.90;;;;;;1862247;76;21140;-83
2020/12/22 07:42:28;;;;;;;0.10;0.10;;;13.60;99.90;;;;;;1855990;76;21090;-81
2020/12/22 07:44:55;;;;;;;1.10;0.28;;;13.60;99.90;;;;;;1857352;76;21141;-82
2020/12/22 07:47:22;;;;;;;1.10;0.05;;;13.60;99.90;;;;;;1875053;75;21101;-86
2020/12/22 07:49:48;;;;;;;0.47;0.10;;;13.70;99.90;;;;;;1851345;76;21074;-83
2020/12/22 07:52:16;;;;;;;0.35;0.20;;;13.60;99.90;;;;;;1850122;76;21082;-79
2020/12/22 07:54:42;;;;;;;0.10;0.10;;;13.60;99.90;;;;;;1853848;76;21188;-84
2020/12/22 07:57:08;;;;;;;0.10;0.10;;;13.60;99.90;;;;;;1870511;76;21085;-82
2020/12/22 07:59:34;;;;;;;0.55;0.13;;;13.60;99.90;;;;;;1858718;76;21148;-80
2020/12/22 08:02:00;;;;;;;0.13;0.13;;;13.70;99.90;;;;;;1882540;76;21086;-79
2020/12/22 08:04:26;;;;;;;0.00;0.00;;;13.70;99.90;;;;;;1859238;76;21175;-77
2020/12/22 08:06:53;;;;;;;2.05;0.28;;;13.70;99.90;;;;;;1865308;75;21123;-78
2020/12/22 08:09:19;;;;;;;6.08;0.15;;;13.70;99.90;;;;;;1863757;75;21093;-77
2020/12/22 08:11:45;;;;;;;0.10;0.10;;;13.70;99.90;;;;;;1861879;75;21140;-74
2020/12/22 08:14:11;;;;;;;0.10;0.10;;;13.80;99.90;;;;;;1860126;75;21081;-77
2020/12/22 08:16:37;;;;;;;0.10;0.10;;;13.80;99.90;;;;;;1870491;75;21058;-76
2020/12/22 08:19:04;;;;;;;0.10;0.10;;;13.80;99.90;;;;;;1868539;76;21081;-76
2020/12/22 08:21:31;;;;;;;0.00;0.00;;;13.70;99.90;;;;;;1869220;76;21152;-77
2020/12/22 08:23:59;;;;;;;1.92;0.20;;;13.80;99.90;;;;;;1857446;75;21062;-77
2020/12/22 08:26:25;;;;;;;0.28;0.03;;;13.90;99.90;;;;;;1855618;75;21073;-77
2020/12/22 08:28:51;;;;;;;1.20;0.20;;;13.90;99.90;;;;;;1850582;76;21081;-77
2020/12/22 08:31:17;;;;;;;0.00;0.00;;;13.90;99.90;;;;;;1864322;76;21143;-79
2020/12/22 08:33:43;;;;;;;0.00;0.00;;;13.80;99.90;;;;;;1863795;76;21094;-80
2020/12/22 08:36:10;;;;;;;0.20;0.20;;;13.90;99.90;;;;;;1869173;75;21081;-78
2020/12/22 08:38:36;;;;;;;0.10;0.10;;;14.00;99.90;;;;;;1869899;75;21085;-78
2020/12/22 08:41:02;;;;;;;0.13;0.13;;;14.00;99.90;;;;;;1862910;75;21084;-76
2020/12/22 08:43:28;;;;;;;0.10;0.10;;;14.00;99.90;;;;;;1871890;76;21155;-77
2020/12/22 08:45:54;;;;;;;0.28;0.28;;;14.00;99.90;;;;;;1856857;75;21054;-77
2020/12/22 08:48:20;;;;;;;0.23;0.20;;;14.00;99.90;;;;;;1870916;75;21117;-79
2020/12/22 08:50:47;;;;;;;0.40;0.35;;;13.90;99.90;;;;;;1870355;74;21081;-80
2020/12/22 08:53:13;;;;;;;0.10;0.10;;;13.90;99.90;;;;;;1864560;74;21086;-79
2020/12/22 08:55:39;;;;;;;0.30;0.03;;;13.90;99.90;;;;;;1863430;76;21054;-78
2020/12/22 08:58:05;;;;;;;0.10;0.10;;;14.00;99.90;;;;;;1856013;76;21084;-78
2020/12/22 09:00:31;;;;;;;0.00;0.00;;;14.00;99.90;;;;;;1902761;74;21120;-80
2020/12/22 09:02:57;;;;;;;0.30;0.10;;;14.00;99.90;;;;;;1883252;74;21077;-78
2020/12/22 09:05:25;;;;;;;0.00;0.00;;;14.10;99.90;;;;;;1920996;74;21055;-78
2020/12/22 09:07:51;;;;;;;0.10;0.10;;;14.10;99.90;;;;;;1887343;74;21137;-77
2020/12/22 09:10:18;;;;;;;0.17;0.10;;;14.20;99.90;;;;;;1898145;74;21077;-82
2020/12/22 09:12:44;;;;;;;0.20;0.10;;;14.20;99.90;;;;;;1890416;74;21093;-82
2020/12/22 09:15:10;;;;;;;0.00;0.00;;;14.20;99.90;;;;;;1899094;73;21565;-81
2020/12/22 09:17:36;;;;;;;0.20;0.13;;;14.20;99.90;;;;;;1904954;74;21548;-85
2020/12/22 09:20:03;;;;;;;0.55;0.10;;;14.10;99.90;;;;;;1909652;74;21128;-83
2020/12/22 09:22:29;;;;;;;0.00;0.00;;;14.00;99.90;;;;;;1915958;73;21123;-80
2020/12/22 09:24:55;;;;;;;0.17;0.10;;;14.10;99.90;;;;;;1920780;74;21160;-79
2020/12/22 09:27:21;;;;;;;0.30;0.30;;;14.00;99.90;;;;;;1907867;74;21132;-81
2020/12/22 09:29:47;;;;;;;0.10;0.10;;;13.90;99.90;;;;;;1885509;74;21055;-81
2020/12/22 09:32:13;;;;;;;0.10;0.10;;;13.90;99.90;;;;;;1898525;74;21090;-82
2020/12/22 09:34:40;;;;;;;0.10;0.10;;;13.80;99.90;;;;;;1901285;74;21478;-81
2020/12/22 09:37:07;;;;;;;0.10;0.10;;;13.70;99.90;;;;;;1880913;74;21070;-79
2020/12/22 09:39:33;;;;;;;2.62;0.10;;;13.60;99.90;;;;;;1883570;74;21266;-79
2020/12/22 09:41:59;;;;;;;0.17;0.15;;;13.50;99.90;;;;;;1897013;74;21125;-80
2020/12/22 09:44:25;;;;;;;0.42;0.42;;;13.60;99.90;;;;;;1891595;74;21082;-78
2020/12/22 09:46:51;;;;;;;0.30;0.30;;;13.50;99.90;;;;;;1887390;74;21042;-80
2020/12/22 09:49:17;;;;;;;0.30;0.20;;;13.50;99.90;;;;;;1906960;74;21147;-80
2020/12/22 09:51:43;;;;;;;0.20;0.20;;;13.50;99.90;;;;;;1891172;73;21163;-81
2020/12/22 09:54:09;;;;;;;0.37;0.10;;;13.50;99.90;;;;;;1909857;74;21502;-80
2020/12/22 09:56:36;;;;;;;0.30;0.20;;;13.50;99.90;;;;;;1896191;74;21450;-82
2020/12/22 09:59:02;;;;;;;0.10;0.10;;;13.40;99.90;;;;;;1897763;74;21490;-82
2020/12/22 10:01:28;;;;;;;0.20;0.20;;;13.50;99.90;;;;;;1898115;74;21551;-82
2020/12/22 10:03:54;;;;;;;13.72;0.42;;;13.50;99.90;;;;;;1926647;74;21072;-81
2020/12/22 10:06:20;;;;;;;0.20;0.10;;;13.50;99.90;;;;;;1916815;73;21207;-81
2020/12/22 10:08:46;;;;;;;2.77;0.37;;;13.60;99.90;;;;;;1909388;73;21192;-81
2020/12/22 10:11:12;;;;;;;0.00;0.00;;;13.70;99.90;;;;;;1886222;74;21082;-81
2020/12/22 10:13:38;;;;;;;1.07;0.47;;;13.70;99.90;;;;;;1915364;74;21079;-82
2020/12/22 10:16:05;;;;;;;0.60;0.13;;;13.80;99.90;;;;;;1899286;73;21141;-81
2020/12/22 10:18:31;;;;;;;0.10;0.10;;;13.90;99.90;;;;;;1919064;73;21140;-81
2020/12/22 10:20:57;;;;;;;0.10;0.10;;;13.90;99.90;;;;;;1900100;74;21221;-81
2020/12/22 10:23:23;;;;;;;0.35;0.10;;;14.00;99.90;;;;;;1890830;74;21079;-78
2020/12/22 10:25:49;;;;;;;0.10;0.10;;;14.00;99.90;;;;;;1886452;74;21136;-78
2020/12/22 10:28:15;;;;;;;0.50;0.30;;;14.10;99.90;;;;;;1908812;73;21081;-78
2020/12/22 10:30:41;;;;;;;5.33;0.40;;;14.20;99.90;;;;;;1923410;73;21074;-77
2020/12/22 10:33:07;;;;;;;1.72;0.40;;;14.20;99.90;;;;;;1913909;73;21153;-78
2020/12/22 10:35:35;;;;;;;0.20;0.20;;;14.20;99.90;;;;;;1914195;73;21136;-77
2020/12/22 10:38:01;;;;;;;0.08;0.08;;;14.10;99.90;;;;;;1879421;74;21148;-77
2020/12/22 10:40:27;;;;;;;0.20;0.20;;;14.20;99.90;;;;;;1891785;74;21082;-77
2020/12/22 10:42:54;;;;;;;2.87;0.20;;;14.10;99.90;;;;;;1925088;74;21150;-77
2020/12/22 10:45:20;;;;;;;0.10;0.10;;;14.20;99.90;;;;;;1883491;73;21075;-78
2020/12/22 10:47:46;;;;;;;0.10;0.10;;;14.20;99.90;;;;;;1882057;74;21077;-78
2020/12/22 10:50:12;;;;;;;4.12;0.53;;;14.30;99.90;;;;;;1892631;73;21081;-77
2020/12/22 10:52:38;;;;;;;0.08;0.08;;;14.20;99.90;;;;;;1888280;74;21157;-77
2020/12/22 10:55:04;;;;;;;0.05;0.05;;;14.30;99.90;;;;;;1882670;74;21416;-81
2020/12/22 10:57:31;;;;;;;0.30;0.10;;;14.30;99.90;;;;;;1882590;74;21523;-81
2020/12/22 10:59:57;;;;;;;1.22;0.20;;;14.30;99.90;;;;;;1890598;74;21068;-80
2020/12/22 11:02:23;;;;;;;0.25;0.25;;;14.40;99.90;;;;;;1878968;74;21147;-79
2020/12/22 11:04:53;;;;;;;0.20;0.10;;;14.30;99.90;;;;;;1907752;74;21082;-79
2020/12/22 11:07:24;;;;;;;0.37;0.10;;;14.40;99.90;;;;;;1911436;74;21073;-79
2020/12/22 11:09:47;;;;;;;0.10;0.10;;;14.30;99.90;;;;;;1907249;74;21162;-82
2020/12/22 11:12:14;;;;;;;1.12;0.23;;;14.40;99.90;;;;;;1910246;74;21051;-82
2020/12/22 11:14:40;;;;;;;0.28;0.10;;;14.40;99.90;;;;;;1903383;73;21134;-82
2020/12/22 11:17:06;;;;;;;0.10;0.10;;;14.40;99.90;;;;;;1912664;73;21090;-82
2020/12/22 11:19:32;;;;;;;0.10;0.10;;;14.40;99.90;;;;;;1910959;73;21110;-82
2020/12/22 11:21:58;;;;;;;0.10;0.10;;;14.40;99.90;;;;;;1916507;74;21128;-80
2020/12/22 11:24:24;;;;;;;0.10;0.10;;;14.40;99.90;;;;;;1912980;73;21094;-81
2020/12/22 11:26:50;;;;;;;0.00;0.00;;;14.30;99.90;;;;;;1898901;74;21087;-80
2020/12/22 11:29:16;;;;;;;0.00;0.00;;;14.30;99.90;;;;;;1879581;74;21159;-85
2020/12/22 11:31:43;;;;;;;0.10;0.10;;;14.30;99.90;;;;;;1897497;73;21548;-84
2020/12/22 11:34:09;;;;;;;0.10;0.10;;;14.30;99.90;;;;;;1879897;74;21489;-87
2020/12/22 11:36:35;;;;;;;0.00;0.00;;;14.40;99.90;;;;;;1880380;74;21498;-82
2020/12/22 11:39:01;;;;;;;7.78;0.20;;;14.40;99.90;;;;;;1911852;73;21137;-82
2020/12/22 11:41:29;;;;;;;0.10;0.10;;;14.40;99.90;;;;;;1895022;74;21143;-82
2020/12/22 11:43:55;;;;;;;0.30;0.10;;;14.30;99.90;;;;;;1893513;74;21072;-82
2020/12/22 11:46:22;;;;;;;1.15;0.10;;;14.40;99.90;;;;;;1905222;74;21184;-85
2020/12/22 11:48:50;;;;;;;0.17;0.10;;;14.40;99.90;;;;;;1881085;74;21085;-83
2020/12/22 11:51:16;;;;;;;0.45;0.30;;;14.40;99.90;;;;;;1884248;74;21100;-80
2020/12/22 11:53:43;;;;;;;0.13;0.10;;;14.50;99.90;;;;;;1891981;74;21050;-83
2020/12/22 11:56:09;;;;;;;0.25;0.15;;;14.40;99.90;;;;;;1888242;74;21146;-87
2020/12/22 11:58:35;;;;;;;0.20;0.20;;;14.40;99.90;;;;;;1918294;74;21199;-87
2020/12/22 12:01:01;;;;;;;0.68;0.42;;;14.50;99.90;;;;;;1918226;74;21259;-83
2020/12/22 12:03:27;;;;;;;0.10;0.10;;;14.50;99.90;;;;;;1908440;74;21051;-87
2020/12/22 12:05:55;;;;;;;0.57;0.20;;;14.50;99.90;;;;;;1907588;74;21508;-82
2020/12/22 12:08:21;;;;;;;0.10;0.10;;;14.70;99.90;;;;;;1891629;74;21626;-80
2020/12/22 12:10:47;;;;;;;0.10;0.10;;;14.60;99.90;;;;;;1894189;74;21494;-81
2020/12/22 12:13:13;;;;;;;0.20;0.20;;;14.50;99.90;;;;;;1900905;74;21431;-81
2020/12/22 12:15:39;;;;;;;0.10;0.10;;;14.50;99.90;;;;;;1886835;74;21547;-79
2020/12/22 12:18:07;;;;;;;1.20;0.20;;;14.60;99.90;;;;;;1904363;74;21080;-79
2020/12/22 12:20:33;;;;;;;0.17;0.13;;;14.60;99.90;;;;;;1902835;74;21090;-78
2020/12/22 12:22:59;;;;;;;0.65;0.40;;;14.70;99.90;;;;;;1923342;74;21066;-76
2020/12/22 12:25:25;;;;;;;0.13;0.10;;;15.00;99.90;;;;;;1884223;74;21125;-79
2020/12/22 12:27:51;;;;;;;0.10;0.10;;;15.20;99.90;;;;;;1888292;74;21073;-80
2020/12/22 12:30:17;;;;;;;0.00;0.00;;;15.10;99.90;;;;;;1900652;74;21097;-79
2020/12/22 12:32:43;;;;;;;0.20;0.20;;;15.10;99.90;;;;;;1878215;74;21120;-74
2020/12/22 12:35:09;;;;;;;0.10;0.10;;;15.30;99.90;;;;;;1899013;74;21140;-77
2020/12/22 12:37:36;;;;;;;0.37;0.10;;;15.20;99.90;;;;;;1882961;74;21163;-78
2020/12/22 12:40:02;;;;;;;0.75;0.13;;;15.20;99.90;;;;;;1883558;74;21442;-83
2020/12/22 12:42:29;;;;;;;0.00;0.00;;;15.20;99.90;;;;;;1890989;73;21075;-79
2020/12/22 12:44:55;;;;;;;0.30;0.20;;;15.00;99.90;;;;;;1899599;74;21081;-81